Time;durP1;ratioP1;P1;durP2;ratioP2;P2;SDS_P1;SDS_P2;PMS_P1;PMS_P2;Temp;Humidity;BMP_temperature;BMP_pressure;BME280_temperature;BME280_humidity;BME280_pressure;Samples;Min_cycle;Max_cycle;Signal;HPM_P1;HPM_P2
2022/07/03 00:02:24;;;;;;;5.87;3.40;;;;;;;17.06;100.00;101675.97;7390927;19;20442;-63
2022/07/03 00:04:56;;;;;;;10.33;3.77;;;;;;;17.01;100.00;101675.81;7400878;19;20446;-63
2022/07/03 00:07:26;;;;;;;8.53;3.10;;;;;;;17.05;100.00;101671.63;7393103;19;20422;-63
2022/07/03 00:09:55;;;;;;;4.67;3.07;;;;;;;17.02;100.00;101671.50;7396815;19;20392;-63
2022/07/03 00:12:25;;;;;;;4.40;2.90;;;;;;;17.00;100.00;101668.84;7389855;19;20752;-63
2022/07/03 00:14:55;;;;;;;6.13;3.10;;;;;;;17.03;100.00;101667.19;7393657;19;20444;-63
2022/07/03 00:17:24;;;;;;;6.63;3.10;;;;;;;17.06;100.00;101668.16;7387788;19;20415;-62
2022/07/03 00:20:00;;;;;;;4.80;2.80;;;;;;;17.07;100.00;101659.50;7393688;19;20387;-62
2022/07/03 00:22:32;;;;;;;5.97;3.20;;;;;;;17.10;100.00;101659.59;7388592;19;20417;-62
2022/07/03 00:25:04;;;;;;;3.90;2.90;;;;;;;17.10;100.00;101667.44;7393924;19;20419;-63
2022/07/03 00:27:37;;;;;;;3.90;2.50;;;;;;;17.14;100.00;101658.84;7389745;19;20449;-63
2022/07/03 00:30:08;;;;;;;4.60;2.90;;;;;;;17.22;100.00;101658.19;7394777;19;20386;-63
2022/07/03 00:32:41;;;;;;;5.43;3.00;;;;;;;17.19;100.00;101660.69;7388533;19;20433;-62
2022/07/03 00:35:18;;;;;;;5.43;3.00;;;;;;;17.18;100.00;101657.19;7392559;19;20473;-63
2022/07/03 00:37:48;;;;;;;3.87;2.50;;;;;;;17.19;100.00;101664.22;7388798;19;20418;-63
2022/07/03 00:40:17;;;;;;;9.03;3.00;;;;;;;17.20;100.00;101660.75;7393634;19;20379;-63
2022/07/03 00:42:52;;;;;;;3.93;2.63;;;;;;;17.17;100.00;101670.22;7387945;19;20421;-63
2022/07/03 00:45:23;;;;;;;6.50;2.50;;;;;;;17.14;100.00;101671.00;7392806;19;20412;-63
2022/07/03 00:47:52;;;;;;;5.47;2.60;;;;;;;17.19;100.00;101665.91;7387974;19;20415;-62
2022/07/03 00:50:27;;;;;;;3.40;2.67;;;;;;;17.17;100.00;101678.03;7395045;19;20406;-63
2022/07/03 00:52:57;;;;;;;7.60;2.53;;;;;;;17.18;100.00;101677.19;7388168;19;20407;-62
2022/07/03 00:55:28;;;;;;;7.67;2.87;;;;;;;17.19;100.00;101673.75;7392464;19;20403;-62
2022/07/03 00:57:59;;;;;;;6.87;2.67;;;;;;;17.19;100.00;101674.63;7388137;19;20937;-63
2022/07/03 01:00:29;;;;;;;4.60;2.70;;;;;;;17.19;100.00;101676.34;7393404;19;20459;-63
2022/07/03 01:03:04;;;;;;;4.50;2.30;;;;;;;17.20;100.00;101680.72;7387214;19;20432;-63
2022/07/03 01:05:40;;;;;;;4.37;2.60;;;;;;;17.21;100.00;101682.47;7392758;19;20413;-63
2022/07/03 01:08:14;;;;;;;5.23;2.60;;;;;;;17.25;100.00;101679.13;7388627;19;20434;-62
2022/07/03 01:10:52;;;;;;;4.77;2.40;;;;;;;17.28;100.00;101680.09;7394167;19;20383;-63
2022/07/03 01:13:40;;;;;;;4.80;2.70;;;;;;;17.25;100.00;101681.75;7388066;19;20419;-62
2022/07/03 01:16:14;;;;;;;4.20;2.50;;;;;;;17.29;100.00;101686.22;7392183;19;20420;-61
2022/07/03 01:18:48;;;;;;;5.40;3.20;;;;;;;17.29;100.00;101686.22;7385687;19;20421;-63
2022/07/03 01:21:44;;;;;;;4.33;2.43;;;;;;;17.25;100.00;101687.84;7395074;19;20410;-62
2022/07/03 01:24:31;;;;;;;5.87;2.87;;;;;;;17.26;100.00;101691.31;7398156;19;21075;-62
2022/07/03 01:27:08;;;;;;;4.43;2.53;;;;;;;17.27;100.00;101685.25;7388244;19;20407;-62
2022/07/03 01:30:01;;;;;;;7.60;2.43;;;;;;;17.27;100.00;101687.88;7394418;19;20390;-63
2022/07/03 01:32:38;;;;;;;5.87;2.70;;;;;;;17.26;100.00;101691.31;7387740;19;20419;-62
2022/07/03 01:35:10;;;;;;;4.90;2.60;;;;;;;17.21;100.00;101672.03;7393038;19;20481;-62
2022/07/03 01:37:42;;;;;;;4.80;2.47;;;;;;;17.21;100.00;101672.94;7385879;19;20412;-63
2022/07/03 01:40:11;;;;;;;4.93;3.00;;;;;;;17.22;100.00;101673.84;7392975;19;20462;-62
2022/07/03 01:42:44;;;;;;;4.50;2.70;;;;;;;17.30;100.00;101672.31;7383511;19;20461;-63
2022/07/03 01:45:16;;;;;;;4.23;2.37;;;;;;;17.27;100.00;101672.22;7393435;19;20753;-63
2022/07/03 01:47:48;;;;;;;5.13;3.10;;;;;;;17.30;100.00;101671.44;7389065;19;20402;-62
2022/07/03 01:50:18;;;;;;;4.27;2.60;;;;;;;17.26;100.00;101666.16;7394730;19;20379;-63
2022/07/03 01:52:48;;;;;;;2.80;1.80;;;;;;;17.24;100.00;101661.72;7388797;19;20422;-63
2022/07/03 01:55:18;;;;;;;6.37;2.80;;;;;;;17.30;100.00;101667.13;7392834;19;20426;-63
2022/07/03 01:57:51;;;;;;;4.77;2.63;;;;;;;17.28;100.00;101655.75;7387737;19;20407;-63
2022/07/03 02:00:22;;;;;;;6.20;2.70;;;;;;;17.32;100.00;101660.22;7395809;19;20395;-63
2022/07/03 02:02:59;;;;;;;3.43;2.60;;;;;;;17.22;100.00;101663.41;7388116;19;20939;-62
2022/07/03 02:05:44;;;;;;;4.23;2.93;;;;;;;17.18;100.00;101667.63;7393634;19;20511;-62
2022/07/03 02:08:32;;;;;;;3.50;2.20;;;;;;;17.24;100.00;101661.72;7387462;19;20411;-63
2022/07/03 02:11:12;;;;;;;5.63;3.33;;;;;;;17.24;100.00;101662.59;7394234;19;20387;-63
2022/07/03 02:13:54;;;;;;;5.40;2.90;;;;;;;17.30;100.00;101672.31;7386673;19;20750;-63
2022/07/03 02:16:26;;;;;;;5.50;2.97;;;;;;;17.28;100.00;101668.81;7391880;19;20947;-63
2022/07/03 02:19:01;;;;;;;3.80;2.60;;;;;;;17.30;100.00;101677.53;7388036;19;20410;-63
2022/07/03 02:21:31;;;;;;;5.30;2.90;;;;;;;17.27;100.00;101670.50;7392373;19;20454;-63
2022/07/03 02:24:22;;;;;;;4.60;2.53;;;;;;;17.24;100.00;101659.97;7390599;19;20446;-63
2022/07/03 02:26:57;;;;;;;5.40;2.77;;;;;;;17.19;100.00;101652.88;7387547;19;20925;-63
2022/07/03 02:29:36;;;;;;;5.70;2.80;;;;;;;17.13;100.00;101654.47;7392667;19;20379;-62
2022/07/03 02:32:10;;;;;;;3.53;2.57;;;;;;;17.13;100.00;101656.22;7387292;19;20414;-62
2022/07/03 02:34:41;;;;;;;4.50;2.47;;;;;;;17.09;100.00;101650.03;7392084;19;20410;-63
2022/07/03 02:37:14;;;;;;;5.90;3.20;;;;;;;17.09;100.00;101656.94;7386655;19;20485;-62
2022/07/03 02:39:47;;;;;;;4.20;2.67;;;;;;;17.00;100.00;101652.31;7393355;19;20416;-62
2022/07/03 02:42:31;;;;;;;6.23;2.60;;;;;;;16.93;100.00;101650.38;7385609;19;20948;-63
2022/07/03 02:45:06;;;;;;;6.90;2.60;;;;;;;16.90;100.00;101658.97;7391768;19;20430;-63
2022/07/03 02:47:40;;;;;;;5.23;3.00;;;;;;;16.93;100.00;101655.56;7387028;19;20421;-62
2022/07/03 02:50:11;;;;;;;4.40;2.63;;;;;;;16.91;100.00;101658.13;7392807;19;20393;-63
2022/07/03 02:52:47;;;;;;;5.30;3.20;;;;;;;16.85;100.00;101658.84;7387250;19;20418;-62
2022/07/03 02:55:29;;;;;;;5.00;3.40;;;;;;;16.81;100.00;101653.50;7391238;19;20992;-62
2022/07/03 02:58:07;;;;;;;4.70;2.60;;;;;;;16.85;100.00;101653.63;7386618;19;20418;-63
2022/07/03 03:00:41;;;;;;;6.07;2.90;;;;;;;16.84;100.00;101657.09;7392090;19;20382;-63
2022/07/03 03:03:11;;;;;;;4.23;2.70;;;;;;;16.83;100.00;101650.06;7385813;19;20425;-63
2022/07/03 03:05:49;;;;;;;3.57;2.20;;;;;;;16.74;100.00;101645.50;7390696;19;20422;-61
2022/07/03 03:08:21;;;;;;;4.20;2.80;;;;;;;16.73;100.00;101648.03;7386104;19;20444;-63
2022/07/03 03:10:52;;;;;;;7.03;2.97;;;;;;;16.69;100.00;101649.69;7392626;19;20393;-63
2022/07/03 03:13:24;;;;;;;4.90;2.90;;;;;;;16.73;100.00;101648.03;7386408;19;20965;-63
2022/07/03 03:16:01;;;;;;;6.80;2.80;;;;;;;16.68;100.00;101645.31;7392980;19;20433;-63
2022/07/03 03:18:31;;;;;;;4.87;2.70;;;;;;;16.64;100.00;101646.03;7386274;19;20413;-63
2022/07/03 03:21:02;;;;;;;4.47;3.00;;;;;;;16.58;100.00;101643.25;7391799;19;20375;-62
2022/07/03 03:23:48;;;;;;;4.30;2.80;;;;;;;16.58;100.00;101641.53;7386487;19;20417;-63
2022/07/03 03:26:20;;;;;;;5.90;3.00;;;;;;;16.57;100.00;101641.47;7389263;19;20836;-63
2022/07/03 03:28:50;;;;;;;5.03;3.00;;;;;;;16.61;100.00;101643.31;7386227;19;20422;-63
2022/07/03 03:31:22;;;;;;;6.50;3.20;;;;;;;16.57;100.00;101644.97;7391911;19;20382;-62
2022/07/03 03:33:53;;;;;;;4.63;3.00;;;;;;;16.50;100.00;101640.41;7385237;19;20428;-62
2022/07/03 03:36:23;;;;;;;6.03;3.00;;;;;;;16.54;100.00;101639.66;7388614;19;20427;-62
2022/07/03 03:38:52;;;;;;;6.33;3.13;;;;;;;16.54;100.00;101642.28;7385452;19;20487;-62
2022/07/03 03:41:22;;;;;;;5.60;3.40;;;;;;;16.55;100.00;101632.72;7390973;19;20387;-63
2022/07/03 03:43:52;;;;;;;6.73;3.90;;;;;;;16.58;100.00;101644.16;7392903;19;20440;-63
2022/07/03 03:46:24;;;;;;;4.20;2.83;;;;;;;16.56;100.00;101645.78;7396118;19;20428;-62
2022/07/03 03:48:54;;;;;;;6.47;2.93;;;;;;;16.53;100.00;101647.41;7389718;19;20438;-62
2022/07/03 03:51:23;;;;;;;5.23;3.07;;;;;;;16.43;100.00;101643.66;7398746;19;20388;-62
2022/07/03 03:53:53;;;;;;;5.27;3.40;;;;;;;16.56;100.00;101663.16;7392465;19;20413;-63
2022/07/03 03:56:22;;;;;;;8.07;5.47;;;;;;;16.49;100.00;101643.84;7395588;19;20413;-62
2022/07/03 03:58:52;;;;;;;16.03;10.10;;;;;;;16.67;100.00;101658.28;7395054;19;20597;-63
2022/07/03 04:01:24;;;;;;;8.43;5.67;;;;;;;16.80;100.00;101644.78;7397843;19;20401;-63
2022/07/03 04:03:54;;;;;;;12.87;8.80;;;;;;;16.64;100.00;101625.19;7392065;19;20417;-63
2022/07/03 04:06:23;;;;;;;20.23;13.80;;;;;;;16.75;100.00;101612.50;7395386;19;20442;-63
2022/07/03 04:08:53;;;;;;;57.23;37.30;;;;;;;16.78;100.00;101615.19;7392560;19;20421;-63
2022/07/03 04:11:23;;;;;;;15.23;10.40;;;;;;;16.82;100.00;101609.22;7397914;19;20387;-62
2022/07/03 04:13:52;;;;;;;23.90;14.37;;;;;;;16.90;100.00;101598.13;7391611;19;20425;-62
2022/07/03 04:16:24;;;;;;;19.50;11.90;;;;;;;16.83;100.00;101584.94;7395079;19;20418;-62
2022/07/03 04:18:54;;;;;;;16.63;11.40;;;;;;;16.79;100.00;101585.69;7390533;19;20430;-62
2022/07/03 04:21:24;;;;;;;12.50;8.23;;;;;;;16.99;100.00;101588.84;7396944;19;20390;-63
2022/07/03 04:23:53;;;;;;;13.60;7.47;;;;;;;17.26;100.00;101572.25;7391009;19;20417;-62
2022/07/03 04:26:23;;;;;;;5.63;3.57;;;;;;;17.05;100.00;101520.41;7394729;19;21018;-63
2022/07/03 04:28:52;;;;;;;8.10;5.33;;;;;;;17.14;100.00;101527.59;7391282;19;20409;-63
2022/07/03 04:31:24;;;;;;;6.60;3.70;;;;;;;17.09;100.00;101511.84;7400682;19;20732;-62
2022/07/03 04:33:54;;;;;;;7.07;4.07;;;;;;;17.30;100.00;101505.44;7391111;19;20874;-62
2022/07/03 04:36:24;;;;;;;6.73;3.27;;;;;;;17.30;100.00;101476.75;7394004;19;20512;-62
2022/07/03 04:38:53;;;;;;;4.03;2.60;;;;;;;17.22;100.00;101454.81;7390699;19;20427;-62
2022/07/03 04:41:23;;;;;;;4.77;3.13;;;;;;;17.30;100.00;101447.16;7396642;19;20494;-63
2022/07/03 04:43:53;;;;;;;4.50;3.10;;;;;;;17.44;100.00;101439.69;7390237;19;20485;-61
2022/07/03 04:46:25;;;;;;;4.13;2.70;;;;;;;17.55;100.00;101413.00;7394151;19;20422;-63
2022/07/03 04:48:54;;;;;;;5.40;2.57;;;;;;;17.41;100.00;101399.66;7390950;19;21004;-63
2022/07/03 04:51:24;;;;;;;6.67;4.10;;;;;;;17.34;100.00;101408.16;7396614;19;20804;-62
2022/07/03 04:53:54;;;;;;;4.30;2.57;;;;;;;17.22;100.00;101402.66;7390397;19;20415;-62
2022/07/03 04:56:23;;;;;;;3.90;2.50;;;;;;;17.32;100.00;101409.84;7394143;19;20489;-62
2022/07/03 04:58:53;;;;;;;4.17;2.90;;;;;;;17.35;100.00;101399.50;7388994;19;20422;-62
2022/07/03 05:01:25;;;;;;;4.30;2.73;;;;;;;17.44;100.00;101377.09;7395974;19;20900;-63
2022/07/03 05:03:55;;;;;;;5.77;2.90;;;;;;;17.36;100.00;101349.09;7389571;19;20410;-61
2022/07/03 05:06:24;;;;;;;4.20;2.70;;;;;;;17.43;100.00;101291.88;7393781;19;20429;-61
2022/07/03 05:08:54;;;;;;;5.00;2.60;;;;;;;17.45;100.00;101311.03;7394214;19;20807;-62
2022/07/03 05:11:24;;;;;;;5.57;3.07;;;;;;;17.55;100.00;101298.22;7396075;19;20386;-62
2022/07/03 05:13:53;;;;;;;7.90;5.33;;;;;;;17.78;100.00;101283.88;7389655;19;20410;-62
2022/07/03 05:16:25;;;;;;;4.60;3.07;;;;;;;17.66;100.00;101261.94;7393505;19;20426;-62
2022/07/03 05:18:55;;;;;;;4.70;3.10;;;;;;;17.64;100.00;101271.44;7385652;19;20431;-63
2022/07/03 05:21:25;;;;;;;5.10;2.63;;;;;;;17.65;100.00;101252.34;7395501;19;20455;-63
2022/07/03 05:23:54;;;;;;;4.50;2.33;;;;;;;17.68;100.00;101221.09;7388922;19;20422;-63
2022/07/03 05:26:24;;;;;;;3.73;2.47;;;;;;;17.76;100.00;101209.94;7393495;19;20434;-63
2022/07/03 05:28:53;;;;;;;4.60;2.83;;;;;;;17.78;100.00;101182.13;7389308;19;20432;-61
2022/07/03 05:31:26;;;;;;;6.60;2.83;;;;;;;17.77;100.00;101193.41;7395859;19;20390;-61
2022/07/03 05:33:55;;;;;;;5.70;2.43;;;;;;;17.82;100.00;101220.47;7387432;19;20433;-62
2022/07/03 05:36:25;;;;;;;7.27;2.60;;;;;;;17.86;100.00;101239.69;7392685;19;20426;-61
2022/07/03 05:41:37;;;;;;;3.60;2.47;;;;;;;17.94;100.00;101165.91;7395024;19;20390;-62
2022/07/03 05:44:06;;;;;;;5.20;3.00;;;;;;;18.03;100.00;101177.34;7386945;19;20940;-63
2022/07/03 05:46:39;;;;;;;6.87;2.90;;;;;;;18.11;100.00;101135.75;7394710;19;20504;-62
2022/07/03 05:49:08;;;;;;;4.93;2.90;;;;;;;18.18;100.00;101148.03;7388906;19;20436;-63
2022/07/03 05:51:38;;;;;;;4.83;2.80;;;;;;;18.22;100.00;101140.28;7394865;19;20388;-63
2022/07/03 05:54:08;;;;;;;5.27;2.50;;;;;;;18.30;100.00;101114.28;7386572;19;20516;-62
2022/07/03 05:56:38;;;;;;;4.40;2.50;;;;;;;18.39;100.00;101082.22;7394433;19;20467;-62
2022/07/03 05:59:07;;;;;;;4.10;2.53;;;;;;;18.44;100.00;101056.16;7387488;19;20449;-63
2022/07/03 06:01:39;;;;;;;4.80;2.77;;;;;;;18.55;100.00;101056.31;7398302;19;20404;-62
2022/07/03 06:04:09;;;;;;;4.47;3.00;;;;;;;18.65;100.00;101008.53;7385887;19;20447;-62
2022/07/03 06:06:39;;;;;;;5.13;2.70;;;;;;;18.83;100.00;101017.47;7393842;19;20414;-62
2022/07/03 06:09:08;;;;;;;4.83;2.57;;;;;;;18.96;100.00;100982.75;7387940;19;20419;-63
2022/07/03 06:11:45;;;;;;;5.07;2.73;;;;;;;19.02;100.00;100948.88;7387876;19;20918;-63
2022/07/03 06:14:14;;;;;;;4.57;2.53;;;;;;;19.17;100.00;100955.09;7393003;19;20380;-62
2022/07/03 06:16:46;;;;;;;4.07;2.60;;;;;;;19.34;100.00;100936.06;7392586;19;21049;-66
2022/07/03 06:19:16;;;;;;;4.70;2.10;;;;;;;19.47;100.00;100901.28;7393416;19;20943;-63
2022/07/03 06:21:46;;;;;;;7.73;2.70;;;;;;;19.52;100.00;100862.97;7380134;19;20392;-63
2022/07/03 06:24:16;;;;;;;4.60;2.63;;;;;;;19.61;100.00;100850.78;7390937;19;20384;-62
2022/07/03 06:26:45;;;;;;;4.20;2.33;;;;;;;19.72;100.00;100849.09;7387765;19;20458;-63
2022/07/03 06:29:15;;;;;;;3.67;2.17;;;;;;;19.85;100.00;100834.34;7392914;19;20387;-63
2022/07/03 06:31:47;;;;;;;5.43;2.40;;;;;;;20.01;100.00;100835.31;7387554;19;20414;-64
2022/07/03 06:34:17;;;;;;;4.23;2.37;;;;;;;20.09;100.00;100796.94;7392217;19;20395;-63
2022/07/03 06:36:46;;;;;;;5.73;2.83;;;;;;;20.17;100.00;100801.31;7387353;19;20382;-63
2022/07/03 06:39:16;;;;;;;6.80;2.57;;;;;;;20.19;100.00;100807.41;7396198;19;20910;-63
2022/07/03 06:41:46;;;;;;;3.70;2.33;;;;;;;20.27;100.00;100800.47;7387334;19;20384;-62
2022/07/03 06:44:15;;;;;;;4.90;2.40;;;;;;;20.41;100.00;100776.03;7389979;19;20379;-63
2022/07/03 06:46:47;;;;;;;6.70;2.30;;;;;;;20.44;100.00;100748.09;7386440;19;20401;-64
2022/07/03 06:49:17;;;;;;;9.43;2.47;;;;;;;20.47;100.00;100728.88;7392598;19;20402;-62
2022/07/03 06:51:47;;;;;;;7.23;3.30;;;;;;;20.58;100.00;100737.63;7386708;19;20392;-63
2022/07/03 06:54:16;;;;;;;19.90;12.20;;;;;;;20.71;100.00;100742.88;7391528;19;20388;-64
2022/07/03 06:56:46;;;;;;;5.67;2.40;;;;;;;20.72;100.00;100755.09;7387080;19;20403;-63
2022/07/03 06:59:15;;;;;;;8.40;4.70;;;;;;;20.78;100.00;100766.44;7392305;19;20388;-62
2022/07/03 07:01:47;;;;;;;7.30;3.70;;;;;;;20.84;100.00;100723.66;7385125;19;20459;-64
2022/07/03 07:04:17;;;;;;;3.33;2.27;;;;;;;20.93;100.00;100683.44;7389857;19;20388;-63
2022/07/03 07:06:47;;;;;;;5.00;2.40;;;;;;;20.81;100.00;100673.81;7388226;19;20391;-64
2022/07/03 07:09:16;;;;;;;3.20;2.07;;;;;;;20.78;100.00;100663.34;7392153;19;20379;-63
2022/07/03 07:11:46;;;;;;;4.67;2.27;;;;;;;20.80;100.00;100658.97;7383499;19;20901;-62
2022/07/03 07:14:16;;;;;;;7.37;2.27;;;;;;;20.86;100.00;100666.84;7390999;19;20459;-63
2022/07/03 07:16:48;;;;;;;7.97;3.00;;;;;;;20.98;100.00;100650.19;7385060;19;20396;-63
2022/07/03 07:19:18;;;;;;;3.27;1.87;;;;;;;21.06;100.00;100638.84;7400217;19;20843;-62
2022/07/03 07:21:47;;;;;;;4.00;2.10;;;;;;;21.06;100.00;100660.66;7396962;19;20383;-63
2022/07/03 07:24:17;;;;;;;8.70;4.53;;;;;;;21.16;100.00;100648.38;7397276;19;20387;-62
2022/07/03 07:26:46;;;;;;;4.93;2.47;;;;;;;21.22;100.00;100655.38;7393308;19;20726;-62
2022/07/03 07:29:16;;;;;;;4.60;2.70;;;;;;;21.29;100.00;100663.19;7398557;19;20391;-62
2022/07/03 07:31:48;;;;;;;6.00;3.40;;;;;;;21.41;100.00;100685.00;7392226;19;20406;-64
2022/07/03 07:34:18;;;;;;;7.33;4.27;;;;;;;21.42;100.00;100657.88;7401400;19;20397;-63
2022/07/03 07:36:47;;;;;;;14.23;7.73;;;;;;;21.50;100.00;100650.88;7395866;19;20471;-62
2022/07/03 07:39:17;;;;;;;6.80;4.00;;;;;;;21.43;100.00;100652.66;7398565;19;20401;-63
2022/07/03 07:41:47;;;;;;;13.10;5.70;;;;;;;21.43;100.00;100651.78;7393393;19;20721;-62
2022/07/03 07:44:17;;;;;;;5.27;2.37;;;;;;;21.50;100.00;100640.38;7399303;19;20741;-62
2022/07/03 07:46:51;;;;;;;13.33;6.90;;;;;;;21.51;100.00;100649.09;7392212;19;20402;-62
2022/07/03 07:49:21;;;;;;;6.87;2.70;;;;;;;21.35;100.00;100636.06;7398085;19;20933;-63
2022/07/03 07:51:51;;;;;;;9.20;4.10;;;;;;;21.49;100.00;100645.63;7391473;19;20384;-63
2022/07/03 07:54:20;;;;;;;6.90;2.63;;;;;;;21.56;100.00;100650.84;7397310;19;20392;-62
2022/07/03 07:56:50;;;;;;;5.47;2.60;;;;;;;21.65;100.00;100643.78;7390978;19;20388;-63
2022/07/03 07:59:19;;;;;;;7.73;3.30;;;;;;;21.79;100.00;100652.47;7397293;19;20996;-62
2022/07/03 08:07:15;;;;;;;14.83;4.93;;;;;;;22.08;100.00;100638.25;7392170;19;20949;-62
2022/07/03 08:09:45;;;;;;;4.63;2.13;;;;;;;22.21;100.00;100660.03;7402282;19;20399;-62
2022/07/03 08:12:15;;;;;;;8.63;3.73;;;;;;;22.33;100.00;100638.06;7389656;19;20449;-62
2022/07/03 08:14:45;;;;;;;5.63;2.60;;;;;;;22.46;100.00;100624.81;7396242;19;20487;-63
2022/07/03 08:17:17;;;;;;;4.30;2.80;;;;;;;22.48;100.00;100626.53;7391701;19;20434;-63
2022/07/03 08:19:47;;;;;;;4.50;2.60;;;;;;;22.50;100.00;100634.38;7397811;19;20388;-62
2022/07/03 08:22:16;;;;;;;3.80;2.37;;;;;;;22.40;100.00;100620.47;7391726;19;20417;-63
2022/07/03 08:24:46;;;;;;;5.17;3.23;;;;;;;22.45;100.00;100633.56;7396541;19;20957;-62
2022/07/03 08:27:15;;;;;;;5.80;3.13;;;;;;;22.58;100.00;100631.72;7389916;19;20421;-62
2022/07/03 08:29:45;;;;;;;8.13;3.53;;;;;;;22.58;100.00;100623.81;7397237;19;20447;-61
2022/07/03 08:32:18;;;;;;;20.23;7.90;;;;;;;22.52;100.00;100628.25;7390357;19;20526;-63
2022/07/03 08:34:47;;;;;;;10.30;4.60;;;;;;;22.60;100.00;100625.56;7395208;19;20485;-63
2022/07/03 08:37:17;;;;;;;11.00;7.77;;;;;;;22.59;100.00;100615.94;7391487;19;20418;-64
2022/07/03 08:39:46;;;;;;;6.50;4.07;;;;;;;22.55;100.00;100621.25;7397062;19;20392;-63
2022/07/03 08:42:16;;;;;;;10.23;4.60;;;;;;;22.49;100.00;100625.63;7390069;19;20403;-62
2022/07/03 08:44:46;;;;;;;5.23;2.67;;;;;;;22.46;100.00;100619.53;7394098;19;20427;-61
2022/07/03 08:47:19;;;;;;;9.03;5.27;;;;;;;22.43;100.00;100622.19;7389205;19;20411;-62
2022/07/03 08:49:49;;;;;;;6.10;3.40;;;;;;;22.53;100.00;100623.88;7396554;19;20380;-62
2022/07/03 08:52:24;;;;;;;5.87;3.33;;;;;;;22.60;100.00;100615.03;7390321;19;20430;-63
2022/07/03 08:54:54;;;;;;;4.10;2.70;;;;;;;22.77;100.00;100614.00;7394847;19;20412;-63
2022/07/03 08:57:24;;;;;;;5.93;2.93;;;;;;;23.04;100.00;100620.69;7390355;19;20538;-64
2022/07/03 08:59:55;;;;;;;6.57;3.73;;;;;;;23.31;100.00;100612.47;7396354;19;20714;-63
2022/07/03 09:02:28;;;;;;;6.77;2.60;;;;;;;23.54;100.00;100620.03;7388248;19;20731;-62
2022/07/03 09:04:57;;;;;;;6.17;2.67;;;;;;;23.67;100.00;100626.00;7396414;19;20431;-63
2022/07/03 09:07:29;;;;;;;3.80;2.20;;;;;;;23.25;100.00;100634.47;7391682;19;20415;-62
2022/07/03 09:09:58;;;;;;;10.67;4.23;;;;;;;23.23;100.00;100614.31;7395626;19;20402;-62
2022/07/03 09:12:28;;;;;;;7.43;3.13;;;;;;;23.18;100.00;100628.38;7389572;19;20407;-63
2022/07/03 09:14:58;;;;;;;7.83;2.50;;;;;;;22.95;100.00;100636.56;7394226;19;20414;-62
2022/07/03 09:17:30;;;;;;;12.07;3.73;;;;;;;22.99;100.00;100656.69;7388206;19;20424;-62
2022/07/03 09:20:01;;;;;;;6.83;2.80;;;;;;;22.91;100.00;100653.25;7395851;19;20388;-63
2022/07/03 09:22:32;;;;;;;7.23;2.70;;;;;;;22.86;100.00;100647.22;7389358;19;20423;-63
2022/07/03 09:25:07;;;;;;;4.40;2.30;;;;;;;22.72;100.00;100644.72;7396289;19;20979;-62
2022/07/03 09:27:38;;;;;;;7.83;2.50;;;;;;;22.68;100.00;100638.63;7389187;19;20399;-63
2022/07/03 09:30:09;;;;;;;7.07;2.40;;;;;;;22.70;100.00;100636.84;7395082;19;20387;-62
2022/07/03 09:32:49;;;;;;;6.60;2.80;;;;;;;22.54;100.00;100637.91;7388239;19;20411;-62
2022/07/03 09:35:20;;;;;;;7.30;3.70;;;;;;;22.58;100.00;100631.72;7392845;19;20415;-61
2022/07/03 09:37:54;;;;;;;7.57;3.50;;;;;;;22.66;100.00;100627.22;7389344;19;20415;-63
2022/07/03 09:40:24;;;;;;;9.70;2.60;;;;;;;22.75;100.00;100642.03;7392879;19;20707;-64
2022/07/03 09:43:04;;;;;;;7.23;3.13;;;;;;;22.80;100.00;100642.88;7387318;19;20409;-63
2022/07/03 09:45:52;;;;;;;4.10;2.00;;;;;;;22.77;100.00;100642.91;7392682;19;20521;-62
2022/07/03 09:48:35;;;;;;;9.37;3.53;;;;;;;22.79;100.00;100634.13;7387837;19;20478;-62
2022/07/03 09:51:19;;;;;;;5.10;2.77;;;;;;;22.83;100.00;100631.44;7394332;19;20771;-63
2022/07/03 09:53:57;;;;;;;4.03;2.20;;;;;;;22.58;100.00;100635.22;7387654;19;20411;-62
2022/07/03 09:56:29;;;;;;;5.53;3.07;;;;;;;22.61;100.00;100639.59;7394255;19;20375;-61
2022/07/03 09:59:03;;;;;;;14.10;7.40;;;;;;;22.66;100.00;100645.63;7386844;19;20407;-63
2022/07/03 10:01:32;;;;;;;7.60;2.90;;;;;;;22.78;100.00;100639.41;7394059;19;20390;-62
2022/07/03 10:04:21;;;;;;;7.53;4.23;;;;;;;22.79;100.00;100642.03;7384613;19;20494;-61
2022/07/03 10:06:56;;;;;;;18.63;8.93;;;;;;;22.85;100.00;100655.97;7387032;19;20380;-62
2022/07/03 10:09:27;;;;;;;3.83;2.20;;;;;;;23.16;100.00;100650.34;7396598;19;20398;-62
2022/07/03 10:11:58;;;;;;;11.20;6.20;;;;;;;23.36;100.00;100651.88;7387849;19;20736;-63
2022/07/03 10:14:30;;;;;;;11.00;2.33;;;;;;;23.49;100.00;100658.75;7392939;19;20438;-62
2022/07/03 10:17:01;;;;;;;8.10;4.10;;;;;;;23.70;100.00;100651.44;7386397;19;20405;-61
2022/07/03 10:19:41;;;;;;;5.47;2.10;;;;;;;23.87;100.00;100641.50;7395787;19;20400;-61
2022/07/03 10:22:12;;;;;;;4.50;2.40;;;;;;;23.73;100.00;100657.50;7384818;19;20410;-64
2022/07/03 10:24:43;;;;;;;7.90;3.13;;;;;;;23.84;100.00;100649.44;7394461;19;20427;-63
2022/07/03 10:27:13;;;;;;;4.93;2.07;;;;;;;23.53;100.00;100707.81;7386816;19;20445;-62
2022/07/03 10:29:43;;;;;;;4.50;1.47;;;;;;;23.87;100.00;100707.38;7393276;19;20944;-62
2022/07/03 10:32:14;;;;;;;5.67;2.77;;;;;;;23.90;100.00;100716.09;7386136;19;20410;-62
2022/07/03 10:34:47;;;;;;;5.50;1.90;;;;;;;24.26;100.00;100725.22;7394103;19;20415;-63
2022/07/03 10:37:18;;;;;;;7.00;2.57;;;;;;;24.34;100.00;100745.31;7386417;19;20764;-63
2022/07/03 10:39:51;;;;;;;5.97;1.87;;;;;;;24.25;100.00;100746.38;7393288;19;20406;-62
2022/07/03 10:45:12;;;;;;;7.43;2.20;;;;;;;24.37;100.00;100759.34;7393779;19;20427;-63
2022/07/03 10:47:45;;;;;;;8.30;4.03;;;;;;;24.56;100.00;100759.06;7387837;19;20491;-62
2022/07/03 10:50:18;;;;;;;4.97;2.00;;;;;;;24.67;100.00;100778.19;7391518;19;20740;-63
2022/07/03 10:52:48;;;;;;;6.57;2.17;;;;;;;24.86;100.00;100791.09;7394713;19;20761;-61
2022/07/03 10:55:19;;;;;;;3.47;1.93;;;;;;;24.97;100.00;100751.31;7398132;19;20952;-63
2022/07/03 10:58:09;;;;;;;7.93;4.00;;;;;;;24.97;100.00;100766.28;7395492;19;20537;-62
2022/07/03 11:00:56;;;;;;;4.60;2.27;;;;;;;25.09;100.00;100776.63;7400324;19;20383;-62
2022/07/03 11:03:54;;;;;;;4.90;2.20;;;;;;;25.13;100.00;100778.31;7392638;19;20418;-63
2022/07/03 11:07:02;;;;;;;3.90;1.57;;;;;;;25.04;100.00;100786.38;7396855;19;20423;-63
2022/07/03 11:09:32;;;;;;;6.00;2.53;;;;;;;25.10;100.00;100749.31;7399066;19;20414;-63
2022/07/03 11:12:01;;;;;;;4.10;1.50;;;;;;;24.97;100.00;100790.88;7392599;19;20916;-63
2022/07/03 11:14:32;;;;;;;3.07;1.50;;;;;;;25.17;100.00;100803.72;7398500;19;20391;-63
2022/07/03 11:17:20;;;;;;;4.07;1.87;;;;;;;25.42;100.00;100805.06;7392799;19;20395;-62
2022/07/03 11:22:40;;;;;;;5.50;2.50;;;;;;;25.40;100.00;100843.78;7392833;19;20411;-63
2022/07/03 11:25:11;;;;;;;8.00;3.00;;;;;;;25.27;100.00;100857.22;7399036;19;20441;-62
2022/07/03 11:27:40;;;;;;;5.77;2.50;;;;;;;25.19;100.00;100844.19;7391991;19;21067;-63
2022/07/03 11:30:12;;;;;;;4.83;2.00;;;;;;;25.24;100.00;100830.91;7402585;19;20810;-63
2022/07/03 11:32:52;;;;;;;6.90;1.73;;;;;;;25.33;100.00;100821.94;7392482;19;20841;-63
2022/07/03 11:35:48;;;;;;;3.50;1.50;;;;;;;25.49;100.00;100815.44;7396194;19;20407;-63
2022/07/03 11:38:23;;;;;;;6.30;2.40;;;;;;;25.62;100.00;100778.25;7391600;19;20418;-64
2022/07/03 11:40:54;;;;;;;9.00;1.63;;;;;;;25.79;100.00;100796.38;7398915;19;20731;-63
2022/07/03 11:43:24;;;;;;;4.70;1.67;;;;;;;26.01;100.00;100828.50;7391051;19;20437;-63
2022/07/03 11:45:54;;;;;;;9.70;2.50;;;;;;;25.67;100.00;100839.78;7396119;19;20431;-62
2022/07/03 11:48:25;;;;;;;9.47;6.73;;;;;;;25.87;100.00;100826.16;7391877;19;20415;-62
2022/07/03 11:51:00;;;;;;;6.30;2.33;;;;;;;26.13;100.00;100822.09;7398917;19;20759;-63
2022/07/03 11:53:34;;;;;;;10.23;1.93;;;;;;;26.13;100.00;100839.69;7391427;19;20992;-63
2022/07/03 11:56:05;;;;;;;6.50;2.57;;;;;;;26.32;100.00;100866.66;7395616;19;20419;-64